Архив погоды в Кондопоге

Метеограмма Кондопога
Суббота, 23 Июня
Время местн. Темп Ветер Видим Явления Облачность нижн/средн/верх Атм. давл. Влжн Точка росы ВНГО R Сост. почвы Tg s
Напр Скр Прв ур.ст ур.м изм
15:00 - +17.8° Ю-З 5 - - - - 756 759 +1.1 46% +6° - - - - -
12:00 - +17.8° Ю-З 6 - - - - 755 758 +1.2 44% +5.5° - - - - -
09:00 +15.3° Ю-З 5 11 45 км - переменная облачность 753 757 +1.6 58% +7° 1 км 0 Влажная (без луж) - -
06:00 - +11.8° Ю-З 5 - - - - 752 755 +1.8 72% +6.9° - - - - -
03:00 - +12.9° Ю-З 6 12 - - - 750 753 +1.4 64% +6.3° - - - - -
00:00 - +12.6° Ю,Ю-В 4 - - - - 749 752 0 86% +10.3° - - - - -
Пятница, 22 Июня
Время местн. Темп Ветер Видим Явления Облачность нижн/средн/верх Атм. давл. Влжн Точка росы ВНГО R Сост. почвы Tg s
Напр Скр Прв ур.ст ур.м изм
21:00 +14.5° Ю 3 - 40 км - преимущественно облачно 748 752 +0.7 76% +10.4° более 2.5 км 0 - - -
18:00 - +14.8° Ю,Ю-З 3 11 - - - 748 751 +0.5 75% +10.5° - - - - -
15:00 - +14.8° Ю-З 4 - - - - 747 751 +0.7 85% +12.3° - - - - -
12:00 - +15.5° Ю,Ю-В 2 12 - - - 747 750 0 79% +11.9° - - - - -
09:00 +16° Ю-В 6 12 22 км - облачно 747 750 -2.4 76% +11.8° более 2.5 км 0 Влажная (без луж) - -
06:00 - +13.7° В,Ю-В 4 - - - - 749 752 -1.7 78% +9.9° - - - - -
03:00 - +11° Ю 1 - - - - 751 754 -0.7 77% +7.1° - - - - -
00:00 - +9.9° Ю-В 1 - - - - 751 755 +0.2 76% +5.8° - - - - -
Четверг, 21 Июня
Время местн. Темп Ветер Видим Явления Облачность нижн/средн/верх Атм. давл. Влжн Точка росы ВНГО R Сост. почвы Tg s
Напр Скр Прв ур.ст ур.м изм
21:00 +14.8° Ю-В 3 - 21 км - переменная облачность 751 755 +0.4 52% +5° более 2.5 км 0 - - -
18:00 - +21° З 2 - - - - 751 754 +0.3 30% +2.8° - - - - -
15:00 - +20.6° З 3 - - - - 750 754 +0.3 31% +2.8° - - - - -
12:00 - +19.6° З 4 - - - - 750 753 +0.5 35% +3.6° - - - - -
09:00 +16.8° З 4 - 35 км - ясно 750 753 +0.6 43% +4.1° более 2.5 км 0 Сырая (есть малые или большие лужи) - -
06:00 - +13.1° З,С-З 2 - - - - 749 752 +0.6 60% +5.6° - - - - -
03:00 - +10.2° С-З 1 - - - - 748 752 +0.8 68% +4.6° - - - - -
00:00 - +13.5° З,С-З 2 - - - - 748 751 +0.7 56% +4.9° - - - - -
Среда, 20 Июня
Время местн. Темп Ветер Видим Явления Облачность нижн/средн/верх Атм. давл. Влжн Точка росы ВНГО R Сост. почвы Tg s
Напр Скр Прв ур.ст ур.м изм
21:00 +16.7° З,С-З 3 17 25 км - переменная облачность 747 750 +1.2 40% +3.1° более 2.5 км 0 - - -
18:00 - +18° З,С-З 6 17 - - - 746 749 +1.3 40% +4.3° - - - - -
15:00 - +17.4° З,С-З 6 17 - - - 744 748 +0.9 44% +5.1° - - - - -
12:00 - +15.4° З 7 14 - - - 743 747 +0.3 52% +5.7° - - - - -